sensor_id;sensor_type;location;lat;lon;timestamp;temperature;humidity
2999;DHT22;1509;51.964;7.628;2024-02-26T00:00:28;5.10;99.90
2999;DHT22;1509;51.964;7.628;2024-02-26T00:02:54;5.10;99.90
2999;DHT22;1509;51.964;7.628;2024-02-26T00:05:20;5.10;99.90
2999;DHT22;1509;51.964;7.628;2024-02-26T00:07:45;5.10;99.90
2999;DHT22;1509;51.964;7.628;2024-02-26T00:10:13;5.10;99.90
2999;DHT22;1509;51.964;7.628;2024-02-26T00:12:39;5.10;99.90
2999;DHT22;1509;51.964;7.628;2024-02-26T00:15:06;5.10;99.90
2999;DHT22;1509;51.964;7.628;2024-02-26T00:17:31;5.10;99.90
2999;DHT22;1509;51.964;7.628;2024-02-26T00:19:57;5.10;99.90
2999;DHT22;1509;51.964;7.628;2024-02-26T00:22:23;5.00;99.90
2999;DHT22;1509;51.964;7.628;2024-02-26T00:24:48;5.20;99.90
2999;DHT22;1509;51.964;7.628;2024-02-26T00:27:14;5.20;99.90
2999;DHT22;1509;51.964;7.628;2024-02-26T00:29:39;5.20;99.90
2999;DHT22;1509;51.964;7.628;2024-02-26T00:32:05;5.20;99.90
2999;DHT22;1509;51.964;7.628;2024-02-26T00:34:31;5.20;99.90
2999;DHT22;1509;51.964;7.628;2024-02-26T00:36:57;5.30;99.90
2999;DHT22;1509;51.964;7.628;2024-02-26T00:39:22;5.20;99.90
2999;DHT22;1509;51.964;7.628;2024-02-26T00:41:48;5.20;99.90
2999;DHT22;1509;51.964;7.628;2024-02-26T00:44:16;5.40;99.90
2999;DHT22;1509;51.964;7.628;2024-02-26T00:46:42;5.30;99.90
2999;DHT22;1509;51.964;7.628;2024-02-26T00:49:07;5.40;99.90
2999;DHT22;1509;51.964;7.628;2024-02-26T00:51:33;5.30;99.90
2999;DHT22;1509;51.964;7.628;2024-02-26T00:53:58;5.30;99.90
2999;DHT22;1509;51.964;7.628;2024-02-26T00:56:24;5.30;99.90
2999;DHT22;1509;51.964;7.628;2024-02-26T00:58:50;5.30;99.90
2999;DHT22;1509;51.964;7.628;2024-02-26T01:01:19;5.30;99.90
2999;DHT22;1509;51.964;7.628;2024-02-26T01:03:45;5.30;99.90
2999;DHT22;1509;51.964;7.628;2024-02-26T01:06:10;5.30;99.90
2999;DHT22;1509;51.964;7.628;2024-02-26T01:08:36;5.30;99.90
2999;DHT22;1509;51.964;7.628;2024-02-26T01:11:03;5.30;99.90
2999;DHT22;1509;51.964;7.628;2024-02-26T01:13:28;5.30;99.90
2999;DHT22;1509;51.964;7.628;2024-02-26T01:15:54;5.30;99.90
2999;DHT22;1509;51.964;7.628;2024-02-26T01:18:20;5.30;99.90
2999;DHT22;1509;51.964;7.628;2024-02-26T01:20:46;5.30;99.90
2999;DHT22;1509;51.964;7.628;2024-02-26T01:23:12;5.30;99.90
2999;DHT22;1509;51.964;7.628;2024-02-26T01:25:38;5.40;99.90
2999;DHT22;1509;51.964;7.628;2024-02-26T01:28:04;5.30;99.90
2999;DHT22;1509;51.964;7.628;2024-02-26T01:30:31;5.30;99.90
2999;DHT22;1509;51.964;7.628;2024-02-26T01:32:56;5.30;99.90
2999;DHT22;1509;51.964;7.628;2024-02-26T01:35:22;5.30;99.90
2999;DHT22;1509;51.964;7.628;2024-02-26T01:37:48;5.30;99.90
2999;DHT22;1509;51.964;7.628;2024-02-26T01:40:14;5.20;99.90
2999;DHT22;1509;51.964;7.628;2024-02-26T01:42:43;5.30;99.90
2999;DHT22;1509;51.964;7.628;2024-02-26T01:45:17;5.40;99.90
2999;DHT22;1509;51.964;7.628;2024-02-26T01:47:51;5.40;99.90
2999;DHT22;1509;51.964;7.628;2024-02-26T01:50:20;5.40;99.90
2999;DHT22;1509;51.964;7.628;2024-02-26T01:52:48;5.50;99.90
2999;DHT22;1509;51.964;7.628;2024-02-26T01:55:31;5.40;99.90
2999;DHT22;1509;51.964;7.628;2024-02-26T01:57:57;5.50;99.90
2999;DHT22;1509;51.964;7.628;2024-02-26T02:00:24;5.40;99.90
2999;DHT22;1509;51.964;7.628;2024-02-26T02:02:50;5.50;99.90
2999;DHT22;1509;51.964;7.628;2024-02-26T02:05:16;5.50;99.90
2999;DHT22;1509;51.964;7.628;2024-02-26T02:07:48;5.50;99.90
2999;DHT22;1509;51.964;7.628;2024-02-26T02:10:15;5.50;99.90
2999;DHT22;1509;51.964;7.628;2024-02-26T02:12:41;5.60;99.90
2999;DHT22;1509;51.964;7.628;2024-02-26T02:15:07;5.60;99.90
2999;DHT22;1509;51.964;7.628;2024-02-26T02:17:33;5.70;99.90
2999;DHT22;1509;51.964;7.628;2024-02-26T02:19:58;5.60;99.90
2999;DHT22;1509;51.964;7.628;2024-02-26T02:22:24;5.60;99.90
2999;DHT22;1509;51.964;7.628;2024-02-26T02:24:52;5.90;99.90
2999;DHT22;1509;51.964;7.628;2024-02-26T02:27:18;5.70;99.90
2999;DHT22;1509;51.964;7.628;2024-02-26T02:29:43;5.70;99.90
2999;DHT22;1509;51.964;7.628;2024-02-26T02:32:09;5.70;99.90
2999;DHT22;1509;51.964;7.628;2024-02-26T02:34:35;5.60;99.90
2999;DHT22;1509;51.964;7.628;2024-02-26T02:37:01;5.50;99.90
2999;DHT22;1509;51.964;7.628;2024-02-26T02:39:26;5.50;99.90
2999;DHT22;1509;51.964;7.628;2024-02-26T02:41:52;5.80;99.90
2999;DHT22;1509;51.964;7.628;2024-02-26T02:44:18;5.60;99.90
2999;DHT22;1509;51.964;7.628;2024-02-26T02:46:43;5.60;99.90
2999;DHT22;1509;51.964;7.628;2024-02-26T02:49:09;5.60;99.90
2999;DHT22;1509;51.964;7.628;2024-02-26T02:51:36;5.70;99.90
2999;DHT22;1509;51.964;7.628;2024-02-26T02:54:04;5.70;99.90
2999;DHT22;1509;51.964;7.628;2024-02-26T02:56:30;5.70;99.90
2999;DHT22;1509;51.964;7.628;2024-02-26T02:58:56;5.70;99.90
2999;DHT22;1509;51.964;7.628;2024-02-26T03:01:21;5.70;99.90
2999;DHT22;1509;51.964;7.628;2024-02-26T03:03:47;5.80;99.90
2999;DHT22;1509;51.964;7.628;2024-02-26T03:06:12;5.80;99.90
2999;DHT22;1509;51.964;7.628;2024-02-26T03:08:38;5.80;99.90
2999;DHT22;1509;51.964;7.628;2024-02-26T03:11:05;5.80;99.90
2999;DHT22;1509;51.964;7.628;2024-02-26T03:13:31;5.80;99.90
2999;DHT22;1509;51.964;7.628;2024-02-26T03:15:56;5.90;99.90
2999;DHT22;1509;51.964;7.628;2024-02-26T03:18:22;6.10;99.90
2999;DHT22;1509;51.964;7.628;2024-02-26T03:20:49;5.90;99.90
2999;DHT22;1509;51.964;7.628;2024-02-26T03:23:15;5.90;99.90
2999;DHT22;1509;51.964;7.628;2024-02-26T03:25:45;6.00;99.90
2999;DHT22;1509;51.964;7.628;2024-02-26T03:28:13;6.00;99.90
2999;DHT22;1509;51.964;7.628;2024-02-26T03:30:39;6.00;99.90
2999;DHT22;1509;51.964;7.628;2024-02-26T03:33:04;6.00;99.90
2999;DHT22;1509;51.964;7.628;2024-02-26T03:35:30;6.00;99.90
2999;DHT22;1509;51.964;7.628;2024-02-26T03:37:55;6.00;99.90
2999;DHT22;1509;51.964;7.628;2024-02-26T03:40:21;6.00;99.90
2999;DHT22;1509;51.964;7.628;2024-02-26T03:42:50;6.00;99.90
2999;DHT22;1509;51.964;7.628;2024-02-26T03:45:18;6.00;99.90
2999;DHT22;1509;51.964;7.628;2024-02-26T03:47:43;6.00;99.90
2999;DHT22;1509;51.964;7.628;2024-02-26T03:50:09;6.00;99.90
2999;DHT22;1509;51.964;7.628;2024-02-26T03:52:35;6.00;99.90
2999;DHT22;1509;51.964;7.628;2024-02-26T03:55:00;6.00;99.90
2999;DHT22;1509;51.964;7.628;2024-02-26T03:57:26;6.00;99.90
2999;DHT22;1509;51.964;7.628;2024-02-26T03:59:51;5.90;99.90
2999;DHT22;1509;51.964;7.628;2024-02-26T04:02:17;5.90;99.90
2999;DHT22;1509;51.964;7.628;2024-02-26T04:04:45;5.90;99.90
2999;DHT22;1509;51.964;7.628;2024-02-26T04:07:11;5.90;99.90
2999;DHT22;1509;51.964;7.628;2024-02-26T04:09:37;5.90;99.90
2999;DHT22;1509;51.964;7.628;2024-02-26T04:12:03;5.90;99.90
2999;DHT22;1509;51.964;7.628;2024-02-26T04:14:28;5.90;99.90
2999;DHT22;1509;51.964;7.628;2024-02-26T04:16:54;5.90;99.90
2999;DHT22;1509;51.964;7.628;2024-02-26T04:19:20;5.90;99.90
2999;DHT22;1509;51.964;7.628;2024-02-26T04:21:45;5.90;99.90
2999;DHT22;1509;51.964;7.628;2024-02-26T04:24:11;5.90;99.90
2999;DHT22;1509;51.964;7.628;2024-02-26T04:26:37;5.90;99.90
2999;DHT22;1509;51.964;7.628;2024-02-26T04:29:02;6.00;99.90
2999;DHT22;1509;51.964;7.628;2024-02-26T04:31:28;5.90;99.90
2999;DHT22;1509;51.964;7.628;2024-02-26T04:33:54;6.00;99.90
2999;DHT22;1509;51.964;7.628;2024-02-26T04:36:20;6.00;99.90
2999;DHT22;1509;51.964;7.628;2024-02-26T04:38:45;6.00;99.90
2999;DHT22;1509;51.964;7.628;2024-02-26T04:41:11;6.00;99.90
2999;DHT22;1509;51.964;7.628;2024-02-26T04:43:37;6.00;99.90
2999;DHT22;1509;51.964;7.628;2024-02-26T04:46:07;6.00;99.90
2999;DHT22;1509;51.964;7.628;2024-02-26T04:48:34;5.90;99.90
2999;DHT22;1509;51.964;7.628;2024-02-26T04:51:00;5.90;99.90
2999;DHT22;1509;51.964;7.628;2024-02-26T04:53:25;5.80;99.90
2999;DHT22;1509;51.964;7.628;2024-02-26T04:55:51;5.80;99.90
2999;DHT22;1509;51.964;7.628;2024-02-26T04:58:17;5.80;99.90
2999;DHT22;1509;51.964;7.628;2024-02-26T05:00:43;5.80;99.90
2999;DHT22;1509;51.964;7.628;2024-02-26T05:03:09;5.80;99.90
2999;DHT22;1509;51.964;7.628;2024-02-26T05:05:39;5.80;99.90
2999;DHT22;1509;51.964;7.628;2024-02-26T05:08:05;5.80;99.90
2999;DHT22;1509;51.964;7.628;2024-02-26T05:10:31;5.80;99.90
2999;DHT22;1509;51.964;7.628;2024-02-26T05:12:56;5.80;99.90
2999;DHT22;1509;51.964;7.628;2024-02-26T05:15:22;5.80;99.90
2999;DHT22;1509;51.964;7.628;2024-02-26T05:17:48;5.70;99.90
2999;DHT22;1509;51.964;7.628;2024-02-26T05:20:14;5.80;99.90
2999;DHT22;1509;51.964;7.628;2024-02-26T05:22:39;5.80;99.90
2999;DHT22;1509;51.964;7.628;2024-02-26T05:25:05;5.80;99.90
2999;DHT22;1509;51.964;7.628;2024-02-26T05:27:31;5.80;99.90
2999;DHT22;1509;51.964;7.628;2024-02-26T05:29:56;5.80;99.90
2999;DHT22;1509;51.964;7.628;2024-02-26T05:32:22;5.70;99.90
2999;DHT22;1509;51.964;7.628;2024-02-26T05:34:48;5.70;99.90
2999;DHT22;1509;51.964;7.628;2024-02-26T05:37:13;5.70;99.90
2999;DHT22;1509;51.964;7.628;2024-02-26T05:39:39;5.70;99.90
2999;DHT22;1509;51.964;7.628;2024-02-26T05:42:04;5.70;99.90
2999;DHT22;1509;51.964;7.628;2024-02-26T05:44:30;5.80;99.90
2999;DHT22;1509;51.964;7.628;2024-02-26T05:46:56;5.80;99.90
2999;DHT22;1509;51.964;7.628;2024-02-26T05:49:24;5.80;99.90
2999;DHT22;1509;51.964;7.628;2024-02-26T05:51:50;5.80;99.90
2999;DHT22;1509;51.964;7.628;2024-02-26T05:54:15;5.90;99.90
2999;DHT22;1509;51.964;7.628;2024-02-26T05:56:41;5.80;99.90
2999;DHT22;1509;51.964;7.628;2024-02-26T05:59:08;5.70;99.90
2999;DHT22;1509;51.964;7.628;2024-02-26T06:01:33;5.70;99.90
2999;DHT22;1509;51.964;7.628;2024-02-26T06:03:59;5.80;99.90
2999;DHT22;1509;51.964;7.628;2024-02-26T06:06:25;5.70;99.90
2999;DHT22;1509;51.964;7.628;2024-02-26T06:08:50;5.80;99.90
2999;DHT22;1509;51.964;7.628;2024-02-26T06:11:16;5.70;99.90
2999;DHT22;1509;51.964;7.628;2024-02-26T06:13:42;5.80;99.90
2999;DHT22;1509;51.964;7.628;2024-02-26T06:16:10;5.70;99.90
2999;DHT22;1509;51.964;7.628;2024-02-26T06:18:36;5.70;99.90
2999;DHT22;1509;51.964;7.628;2024-02-26T06:21:01;5.70;99.90
2999;DHT22;1509;51.964;7.628;2024-02-26T06:23:27;5.70;99.90
2999;DHT22;1509;51.964;7.628;2024-02-26T06:25:53;5.70;99.90
2999;DHT22;1509;51.964;7.628;2024-02-26T06:28:19;5.70;99.90
2999;DHT22;1509;51.964;7.628;2024-02-26T06:30:44;5.80;99.90
2999;DHT22;1509;51.964;7.628;2024-02-26T06:33:11;5.80;99.90
2999;DHT22;1509;51.964;7.628;2024-02-26T06:35:37;5.80;99.90
2999;DHT22;1509;51.964;7.628;2024-02-26T06:38:03;5.80;99.90
2999;DHT22;1509;51.964;7.628;2024-02-26T06:40:29;5.80;99.90
2999;DHT22;1509;51.964;7.628;2024-02-26T06:42:58;5.70;99.90
2999;DHT22;1509;51.964;7.628;2024-02-26T06:45:23;5.80;99.90
2999;DHT22;1509;51.964;7.628;2024-02-26T06:47:49;5.80;99.90
2999;DHT22;1509;51.964;7.628;2024-02-26T06:50:15;5.80;99.90
2999;DHT22;1509;51.964;7.628;2024-02-26T06:52:40;5.80;99.90
2999;DHT22;1509;51.964;7.628;2024-02-26T06:55:06;5.80;99.90
2999;DHT22;1509;51.964;7.628;2024-02-26T06:57:33;5.80;99.90
2999;DHT22;1509;51.964;7.628;2024-02-26T06:59:59;5.80;99.90
2999;DHT22;1509;51.964;7.628;2024-02-26T07:02:25;5.90;99.90
2999;DHT22;1509;51.964;7.628;2024-02-26T07:04:50;5.90;99.90
2999;DHT22;1509;51.964;7.628;2024-02-26T07:07:16;5.90;99.90
2999;DHT22;1509;51.964;7.628;2024-02-26T07:09:44;5.90;99.90
2999;DHT22;1509;51.964;7.628;2024-02-26T07:12:09;6.00;99.90
2999;DHT22;1509;51.964;7.628;2024-02-26T07:14:35;6.10;99.90
2999;DHT22;1509;51.964;7.628;2024-02-26T07:17:03;6.10;99.90
2999;DHT22;1509;51.964;7.628;2024-02-26T07:19:28;6.10;99.90
2999;DHT22;1509;51.964;7.628;2024-02-26T07:21:54;6.20;99.90
2999;DHT22;1509;51.964;7.628;2024-02-26T07:24:20;6.30;99.90
2999;DHT22;1509;51.964;7.628;2024-02-26T07:26:46;6.20;99.90
2999;DHT22;1509;51.964;7.628;2024-02-26T07:29:12;6.30;99.90
2999;DHT22;1509;51.964;7.628;2024-02-26T07:31:37;6.30;99.90
2999;DHT22;1509;51.964;7.628;2024-02-26T07:34:03;6.40;99.90
2999;DHT22;1509;51.964;7.628;2024-02-26T07:36:29;6.40;99.90
2999;DHT22;1509;51.964;7.628;2024-02-26T07:38:54;6.40;99.90
2999;DHT22;1509;51.964;7.628;2024-02-26T07:41:20;6.40;99.90
2999;DHT22;1509;51.964;7.628;2024-02-26T07:43:46;6.40;99.90
2999;DHT22;1509;51.964;7.628;2024-02-26T07:46:15;6.40;99.90
2999;DHT22;1509;51.964;7.628;2024-02-26T07:48:40;6.40;99.90
2999;DHT22;1509;51.964;7.628;2024-02-26T07:51:07;6.50;99.90
2999;DHT22;1509;51.964;7.628;2024-02-26T07:53:32;6.70;99.90
2999;DHT22;1509;51.964;7.628;2024-02-26T07:55:58;6.50;99.90
2999;DHT22;1509;51.964;7.628;2024-02-26T07:58:24;6.60;99.90
2999;DHT22;1509;51.964;7.628;2024-02-26T08:00:49;6.60;99.90
2999;DHT22;1509;51.964;7.628;2024-02-26T08:03:15;6.60;99.90
2999;DHT22;1509;51.964;7.628;2024-02-26T08:05:41;6.70;99.90
2999;DHT22;1509;51.964;7.628;2024-02-26T08:08:08;6.60;99.90
2999;DHT22;1509;51.964;7.628;2024-02-26T08:10:34;6.70;99.90
2999;DHT22;1509;51.964;7.628;2024-02-26T08:13:02;6.70;99.90
2999;DHT22;1509;51.964;7.628;2024-02-26T08:15:37;6.70;99.90
2999;DHT22;1509;51.964;7.628;2024-02-26T08:18:03;6.70;99.90
2999;DHT22;1509;51.964;7.628;2024-02-26T08:20:32;6.80;99.90
2999;DHT22;1509;51.964;7.628;2024-02-26T08:23:00;6.90;99.90
2999;DHT22;1509;51.964;7.628;2024-02-26T08:25:25;7.00;99.90
2999;DHT22;1509;51.964;7.628;2024-02-26T08:27:54;7.00;99.90
2999;DHT22;1509;51.964;7.628;2024-02-26T08:30:20;7.00;99.90
2999;DHT22;1509;51.964;7.628;2024-02-26T08:32:47;7.10;99.90
2999;DHT22;1509;51.964;7.628;2024-02-26T08:35:12;7.10;99.90
2999;DHT22;1509;51.964;7.628;2024-02-26T08:37:38;7.10;99.90
2999;DHT22;1509;51.964;7.628;2024-02-26T08:40:05;7.20;99.90
2999;DHT22;1509;51.964;7.628;2024-02-26T08:42:31;7.30;99.90
2999;DHT22;1509;51.964;7.628;2024-02-26T08:44:57;7.30;99.90
2999;DHT22;1509;51.964;7.628;2024-02-26T08:47:25;7.40;99.90
2999;DHT22;1509;51.964;7.628;2024-02-26T08:49:51;7.40;99.90
2999;DHT22;1509;51.964;7.628;2024-02-26T08:52:16;7.50;99.90
2999;DHT22;1509;51.964;7.628;2024-02-26T08:54:42;7.50;99.90
2999;DHT22;1509;51.964;7.628;2024-02-26T08:57:08;7.50;99.90
2999;DHT22;1509;51.964;7.628;2024-02-26T08:59:33;7.60;99.90
2999;DHT22;1509;51.964;7.628;2024-02-26T09:01:59;7.60;99.90
2999;DHT22;1509;51.964;7.628;2024-02-26T09:04:25;7.80;99.90
2999;DHT22;1509;51.964;7.628;2024-02-26T09:06:51;7.70;99.90
2999;DHT22;1509;51.964;7.628;2024-02-26T09:09:17;7.80;99.90
2999;DHT22;1509;51.964;7.628;2024-02-26T09:11:42;7.80;99.90
2999;DHT22;1509;51.964;7.628;2024-02-26T09:14:08;7.80;99.90
2999;DHT22;1509;51.964;7.628;2024-02-26T09:16:34;7.70;99.90
2999;DHT22;1509;51.964;7.628;2024-02-26T09:18:59;7.80;99.90
2999;DHT22;1509;51.964;7.628;2024-02-26T09:21:28;7.80;99.90
2999;DHT22;1509;51.964;7.628;2024-02-26T09:23:53;7.70;99.90
2999;DHT22;1509;51.964;7.628;2024-02-26T09:26:19;7.90;99.90
2999;DHT22;1509;51.964;7.628;2024-02-26T09:28:45;7.90;99.90
2999;DHT22;1509;51.964;7.628;2024-02-26T09:31:11;7.80;99.90
2999;DHT22;1509;51.964;7.628;2024-02-26T09:33:37;7.90;99.90
2999;DHT22;1509;51.964;7.628;2024-02-26T09:36:03;7.70;99.90
2999;DHT22;1509;51.964;7.628;2024-02-26T09:38:29;7.60;99.90
2999;DHT22;1509;51.964;7.628;2024-02-26T09:40:57;7.60;99.90
2999;DHT22;1509;51.964;7.628;2024-02-26T09:43:23;7.70;99.90
2999;DHT22;1509;51.964;7.628;2024-02-26T09:45:54;7.70;99.90
2999;DHT22;1509;51.964;7.628;2024-02-26T09:48:22;7.90;99.90
2999;DHT22;1509;51.964;7.628;2024-02-26T09:50:49;7.90;99.90
2999;DHT22;1509;51.964;7.628;2024-02-26T09:53:15;7.60;99.90
2999;DHT22;1509;51.964;7.628;2024-02-26T09:55:42;7.60;99.90
2999;DHT22;1509;51.964;7.628;2024-02-26T09:58:08;7.50;99.90
2999;DHT22;1509;51.964;7.628;2024-02-26T10:00:37;7.50;99.90
2999;DHT22;1509;51.964;7.628;2024-02-26T10:03:09;7.60;99.90
2999;DHT22;1509;51.964;7.628;2024-02-26T10:05:38;7.70;99.90
2999;DHT22;1509;51.964;7.628;2024-02-26T10:08:06;7.90;99.90
2999;DHT22;1509;51.964;7.628;2024-02-26T10:10:33;8.10;99.90
2999;DHT22;1509;51.964;7.628;2024-02-26T10:13:00;8.20;99.90
2999;DHT22;1509;51.964;7.628;2024-02-26T10:15:26;8.30;99.90
2999;DHT22;1509;51.964;7.628;2024-02-26T10:17:52;8.40;99.90
2999;DHT22;1509;51.964;7.628;2024-02-26T10:20:19;8.40;99.90
2999;DHT22;1509;51.964;7.628;2024-02-26T10:22:47;8.30;99.90
2999;DHT22;1509;51.964;7.628;2024-02-26T10:25:13;8.30;99.90
2999;DHT22;1509;51.964;7.628;2024-02-26T10:27:40;8.40;99.90
2999;DHT22;1509;51.964;7.628;2024-02-26T10:30:18;8.40;99.90
2999;DHT22;1509;51.964;7.628;2024-02-26T10:32:45;8.20;99.90
2999;DHT22;1509;51.964;7.628;2024-02-26T10:35:15;8.00;99.90
2999;DHT22;1509;51.964;7.628;2024-02-26T10:37:41;8.00;99.90
2999;DHT22;1509;51.964;7.628;2024-02-26T10:40:11;8.10;99.90
2999;DHT22;1509;51.964;7.628;2024-02-26T10:42:37;8.10;99.90
2999;DHT22;1509;51.964;7.628;2024-02-26T10:45:05;8.00;99.90
2999;DHT22;1509;51.964;7.628;2024-02-26T10:47:31;8.00;99.90
2999;DHT22;1509;51.964;7.628;2024-02-26T10:49:58;8.00;99.90
2999;DHT22;1509;51.964;7.628;2024-02-26T10:52:25;8.20;99.90
2999;DHT22;1509;51.964;7.628;2024-02-26T10:54:54;8.00;99.90
2999;DHT22;1509;51.964;7.628;2024-02-26T10:57:22;8.00;99.90
2999;DHT22;1509;51.964;7.628;2024-02-26T10:59:51;8.00;99.90
2999;DHT22;1509;51.964;7.628;2024-02-26T11:02:18;7.90;99.90
2999;DHT22;1509;51.964;7.628;2024-02-26T11:04:48;7.90;99.90
2999;DHT22;1509;51.964;7.628;2024-02-26T11:07:15;8.00;99.90
2999;DHT22;1509;51.964;7.628;2024-02-26T11:09:43;8.00;99.90
2999;DHT22;1509;51.964;7.628;2024-02-26T11:12:11;7.70;99.90
2999;DHT22;1509;51.964;7.628;2024-02-26T11:14:40;7.80;99.90
2999;DHT22;1509;51.964;7.628;2024-02-26T11:17:07;7.70;99.90
2999;DHT22;1509;51.964;7.628;2024-02-26T11:19:35;7.70;99.90
2999;DHT22;1509;51.964;7.628;2024-02-26T11:22:01;7.90;99.90
2999;DHT22;1509;51.964;7.628;2024-02-26T11:24:27;7.70;99.90
2999;DHT22;1509;51.964;7.628;2024-02-26T11:26:55;7.60;99.90
2999;DHT22;1509;51.964;7.628;2024-02-26T11:29:38;7.60;99.90
2999;DHT22;1509;51.964;7.628;2024-02-26T11:32:06;7.70;99.90
2999;DHT22;1509;51.964;7.628;2024-02-26T11:34:32;7.70;99.90
2999;DHT22;1509;51.964;7.628;2024-02-26T11:36:57;7.70;99.90
2999;DHT22;1509;51.964;7.628;2024-02-26T11:39:33;7.70;99.90
2999;DHT22;1509;51.964;7.628;2024-02-26T11:42:14;7.70;99.90
2999;DHT22;1509;51.964;7.628;2024-02-26T11:44:40;7.80;99.90
2999;DHT22;1509;51.964;7.628;2024-02-26T11:47:21;7.50;99.90
2999;DHT22;1509;51.964;7.628;2024-02-26T11:49:47;7.60;99.90
2999;DHT22;1509;51.964;7.628;2024-02-26T11:52:14;7.60;99.90
2999;DHT22;1509;51.964;7.628;2024-02-26T11:54:43;7.70;99.90
2999;DHT22;1509;51.964;7.628;2024-02-26T11:57:28;7.70;99.90
2999;DHT22;1509;51.964;7.628;2024-02-26T12:00:13;7.70;99.90
2999;DHT22;1509;51.964;7.628;2024-02-26T12:05:12;7.60;99.90
2999;DHT22;1509;51.964;7.628;2024-02-26T12:08:08;7.80;99.90
2999;DHT22;1509;51.964;7.628;2024-02-26T12:10:36;7.70;99.90
2999;DHT22;1509;51.964;7.628;2024-02-26T12:13:16;7.60;99.90
2999;DHT22;1509;51.964;7.628;2024-02-26T12:15:54;7.60;99.90
2999;DHT22;1509;51.964;7.628;2024-02-26T12:18:21;7.60;99.90
2999;DHT22;1509;51.964;7.628;2024-02-26T12:21:08;7.60;99.90
2999;DHT22;1509;51.964;7.628;2024-02-26T12:23:41;7.40;99.90
2999;DHT22;1509;51.964;7.628;2024-02-26T12:26:06;7.40;99.90
2999;DHT22;1509;51.964;7.628;2024-02-26T12:28:33;7.40;99.90
2999;DHT22;1509;51.964;7.628;2024-02-26T12:30:59;7.50;99.90
2999;DHT22;1509;51.964;7.628;2024-02-26T12:33:25;7.40;99.90
2999;DHT22;1509;51.964;7.628;2024-02-26T12:35:52;7.30;99.90
2999;DHT22;1509;51.964;7.628;2024-02-26T12:38:18;7.40;99.90
2999;DHT22;1509;51.964;7.628;2024-02-26T12:40:45;7.40;99.90
2999;DHT22;1509;51.964;7.628;2024-02-26T12:43:10;7.40;99.90
2999;DHT22;1509;51.964;7.628;2024-02-26T12:45:41;7.40;99.90
2999;DHT22;1509;51.964;7.628;2024-02-26T12:48:07;7.40;99.90
2999;DHT22;1509;51.964;7.628;2024-02-26T12:50:33;7.50;99.90
2999;DHT22;1509;51.964;7.628;2024-02-26T12:52:59;7.60;99.90
2999;DHT22;1509;51.964;7.628;2024-02-26T12:55:25;7.50;99.90
2999;DHT22;1509;51.964;7.628;2024-02-26T12:57:52;7.50;99.90
2999;DHT22;1509;51.964;7.628;2024-02-26T13:00:22;7.50;99.90
2999;DHT22;1509;51.964;7.628;2024-02-26T13:02:49;7.60;99.90
2999;DHT22;1509;51.964;7.628;2024-02-26T13:05:16;7.70;99.90
2999;DHT22;1509;51.964;7.628;2024-02-26T13:07:46;7.70;99.90
2999;DHT22;1509;51.964;7.628;2024-02-26T13:10:18;7.70;99.90
2999;DHT22;1509;51.964;7.628;2024-02-26T13:12:46;7.80;99.90
2999;DHT22;1509;51.964;7.628;2024-02-26T13:15:16;7.90;99.90
2999;DHT22;1509;51.964;7.628;2024-02-26T13:17:42;7.80;99.90
2999;DHT22;1509;51.964;7.628;2024-02-26T13:20:08;7.80;99.90
2999;DHT22;1509;51.964;7.628;2024-02-26T13:22:35;7.90;99.90
2999;DHT22;1509;51.964;7.628;2024-02-26T13:25:01;8.00;99.90
2999;DHT22;1509;51.964;7.628;2024-02-26T13:27:29;7.90;99.90
2999;DHT22;1509;51.964;7.628;2024-02-26T13:30:11;7.90;99.90
2999;DHT22;1509;51.964;7.628;2024-02-26T13:32:39;7.90;99.90
2999;DHT22;1509;51.964;7.628;2024-02-26T13:35:09;7.80;99.90
2999;DHT22;1509;51.964;7.628;2024-02-26T13:37:38;7.80;99.90
2999;DHT22;1509;51.964;7.628;2024-02-26T13:40:14;7.80;99.90
2999;DHT22;1509;51.964;7.628;2024-02-26T13:42:42;7.80;99.90
2999;DHT22;1509;51.964;7.628;2024-02-26T13:45:08;7.70;99.90
2999;DHT22;1509;51.964;7.628;2024-02-26T13:47:34;7.80;99.90
2999;DHT22;1509;51.964;7.628;2024-02-26T13:50:00;7.80;99.90
2999;DHT22;1509;51.964;7.628;2024-02-26T13:52:26;7.80;99.90
2999;DHT22;1509;51.964;7.628;2024-02-26T13:54:52;7.80;99.90
2999;DHT22;1509;51.964;7.628;2024-02-26T13:57:19;7.80;99.90
2999;DHT22;1509;51.964;7.628;2024-02-26T13:59:44;7.80;99.90
2999;DHT22;1509;51.964;7.628;2024-02-26T14:02:10;7.80;99.90
2999;DHT22;1509;51.964;7.628;2024-02-26T14:04:37;7.80;99.90
2999;DHT22;1509;51.964;7.628;2024-02-26T14:07:05;7.70;99.90
2999;DHT22;1509;51.964;7.628;2024-02-26T14:09:32;7.70;99.90
2999;DHT22;1509;51.964;7.628;2024-02-26T14:11:58;7.70;99.90
2999;DHT22;1509;51.964;7.628;2024-02-26T14:14:24;7.80;99.90
2999;DHT22;1509;51.964;7.628;2024-02-26T14:16:51;8.00;99.90
2999;DHT22;1509;51.964;7.628;2024-02-26T14:19:16;7.80;99.90
2999;DHT22;1509;51.964;7.628;2024-02-26T14:21:42;7.80;99.90
2999;DHT22;1509;51.964;7.628;2024-02-26T14:24:08;7.70;99.90
2999;DHT22;1509;51.964;7.628;2024-02-26T14:26:34;7.80;99.90
2999;DHT22;1509;51.964;7.628;2024-02-26T14:28:59;7.80;99.90
2999;DHT22;1509;51.964;7.628;2024-02-26T14:31:25;7.80;99.90
2999;DHT22;1509;51.964;7.628;2024-02-26T14:33:51;7.80;99.90
2999;DHT22;1509;51.964;7.628;2024-02-26T14:36:22;7.80;99.90
2999;DHT22;1509;51.964;7.628;2024-02-26T14:38:48;7.90;99.90
2999;DHT22;1509;51.964;7.628;2024-02-26T14:41:14;7.90;99.90
2999;DHT22;1509;51.964;7.628;2024-02-26T14:43:40;7.90;99.90
2999;DHT22;1509;51.964;7.628;2024-02-26T14:46:05;8.00;99.90
2999;DHT22;1509;51.964;7.628;2024-02-26T14:48:31;7.90;99.90
2999;DHT22;1509;51.964;7.628;2024-02-26T14:50:57;7.90;99.90
2999;DHT22;1509;51.964;7.628;2024-02-26T14:53:24;7.80;99.90
2999;DHT22;1509;51.964;7.628;2024-02-26T14:55:49;7.80;99.90
2999;DHT22;1509;51.964;7.628;2024-02-26T14:58:16;7.70;99.90
2999;DHT22;1509;51.964;7.628;2024-02-26T15:00:41;7.70;99.90
2999;DHT22;1509;51.964;7.628;2024-02-26T15:03:10;7.60;99.90
2999;DHT22;1509;51.964;7.628;2024-02-26T15:05:35;7.50;99.90
2999;DHT22;1509;51.964;7.628;2024-02-26T15:08:01;7.40;99.90
2999;DHT22;1509;51.964;7.628;2024-02-26T15:10:28;7.40;99.90
2999;DHT22;1509;51.964;7.628;2024-02-26T15:12:54;7.30;99.90
2999;DHT22;1509;51.964;7.628;2024-02-26T15:15:23;7.30;99.90
2999;DHT22;1509;51.964;7.628;2024-02-26T15:17:49;7.30;99.90
2999;DHT22;1509;51.964;7.628;2024-02-26T15:20:16;7.20;99.90
2999;DHT22;1509;51.964;7.628;2024-02-26T15:22:45;7.30;99.90
2999;DHT22;1509;51.964;7.628;2024-02-26T15:25:12;7.30;99.90
2999;DHT22;1509;51.964;7.628;2024-02-26T15:27:37;7.20;99.90
2999;DHT22;1509;51.964;7.628;2024-02-26T15:30:03;7.20;99.90
2999;DHT22;1509;51.964;7.628;2024-02-26T15:32:29;7.20;99.90
2999;DHT22;1509;51.964;7.628;2024-02-26T15:34:55;7.20;99.90
2999;DHT22;1509;51.964;7.628;2024-02-26T15:37:21;7.20;99.90
2999;DHT22;1509;51.964;7.628;2024-02-26T15:39:47;7.20;99.90
2999;DHT22;1509;51.964;7.628;2024-02-26T15:42:13;7.20;99.90
2999;DHT22;1509;51.964;7.628;2024-02-26T15:44:39;7.30;99.90
2999;DHT22;1509;51.964;7.628;2024-02-26T15:47:05;7.20;99.90
2999;DHT22;1509;51.964;7.628;2024-02-26T15:49:32;7.30;99.90
2999;DHT22;1509;51.964;7.628;2024-02-26T15:51:57;7.20;99.90
2999;DHT22;1509;51.964;7.628;2024-02-26T15:54:23;7.10;99.90
2999;DHT22;1509;51.964;7.628;2024-02-26T15:56:49;7.20;99.90
2999;DHT22;1509;51.964;7.628;2024-02-26T15:59:18;7.20;99.90
2999;DHT22;1509;51.964;7.628;2024-02-26T16:01:44;7.30;99.90
2999;DHT22;1509;51.964;7.628;2024-02-26T16:04:10;7.20;99.90
2999;DHT22;1509;51.964;7.628;2024-02-26T16:06:43;7.20;99.90
2999;DHT22;1509;51.964;7.628;2024-02-26T16:09:09;7.20;99.90
2999;DHT22;1509;51.964;7.628;2024-02-26T16:11:35;7.20;99.90
2999;DHT22;1509;51.964;7.628;2024-02-26T16:17:25;7.20;99.90
2999;DHT22;1509;51.964;7.628;2024-02-26T16:19:59;7.20;99.90